sensor_id;sensor_type;location;lat;lon;timestamp;temperature;humidity
20288;DHT22;10303;51.960;8.372;2023-07-08T00:00:50;22.30;66.80
20288;DHT22;10303;51.960;8.372;2023-07-08T00:03:18;22.20;66.60
20288;DHT22;10303;51.960;8.372;2023-07-08T00:05:46;22.20;66.70
20288;DHT22;10303;51.960;8.372;2023-07-08T00:08:21;22.20;66.80
20288;DHT22;10303;51.960;8.372;2023-07-08T00:10:47;22.20;66.70
20288;DHT22;10303;51.960;8.372;2023-07-08T00:13:13;22.20;66.80
20288;DHT22;10303;51.960;8.372;2023-07-08T00:15:40;22.10;66.80
20288;DHT22;10303;51.960;8.372;2023-07-08T00:18:14;22.10;67.00
20288;DHT22;10303;51.960;8.372;2023-07-08T00:20:47;22.10;67.60
20288;DHT22;10303;51.960;8.372;2023-07-08T00:23:15;22.10;67.30
20288;DHT22;10303;51.960;8.372;2023-07-08T00:25:42;22.10;66.90
20288;DHT22;10303;51.960;8.372;2023-07-08T00:28:20;22.10;67.00
20288;DHT22;10303;51.960;8.372;2023-07-08T00:30:47;22.00;67.80
20288;DHT22;10303;51.960;8.372;2023-07-08T00:33:15;22.00;68.00
20288;DHT22;10303;51.960;8.372;2023-07-08T00:35:43;22.00;67.20
20288;DHT22;10303;51.960;8.372;2023-07-08T00:38:27;21.90;67.30
20288;DHT22;10303;51.960;8.372;2023-07-08T00:43:40;21.90;68.20
20288;DHT22;10303;51.960;8.372;2023-07-08T00:51:34;21.90;68.70
20288;DHT22;10303;51.960;8.372;2023-07-08T00:54:04;21.80;67.90
20288;DHT22;10303;51.960;8.372;2023-07-08T00:56:37;21.80;68.00
20288;DHT22;10303;51.960;8.372;2023-07-08T00:59:44;21.80;68.50
20288;DHT22;10303;51.960;8.372;2023-07-08T01:02:21;21.70;68.90
20288;DHT22;10303;51.960;8.372;2023-07-08T01:07:27;21.70;68.70
20288;DHT22;10303;51.960;8.372;2023-07-08T01:10:02;21.60;68.60
20288;DHT22;10303;51.960;8.372;2023-07-08T01:12:35;21.60;69.20
20288;DHT22;10303;51.960;8.372;2023-07-08T01:15:08;21.60;69.10
20288;DHT22;10303;51.960;8.372;2023-07-08T01:17:35;21.50;68.70
20288;DHT22;10303;51.960;8.372;2023-07-08T01:20:04;21.50;68.70
20288;DHT22;10303;51.960;8.372;2023-07-08T01:22:35;21.50;69.10
20288;DHT22;10303;51.960;8.372;2023-07-08T01:25:02;21.50;69.40
20288;DHT22;10303;51.960;8.372;2023-07-08T01:27:33;21.50;69.00
20288;DHT22;10303;51.960;8.372;2023-07-08T01:30:04;21.50;69.30
20288;DHT22;10303;51.960;8.372;2023-07-08T01:32:34;21.40;69.20
20288;DHT22;10303;51.960;8.372;2023-07-08T01:35:04;21.40;69.50
20288;DHT22;10303;51.960;8.372;2023-07-08T01:37:37;21.30;69.20
20288;DHT22;10303;51.960;8.372;2023-07-08T01:42:45;21.30;70.10
20288;DHT22;10303;51.960;8.372;2023-07-08T01:45:14;21.30;69.50
20288;DHT22;10303;51.960;8.372;2023-07-08T01:47:45;21.30;69.80
20288;DHT22;10303;51.960;8.372;2023-07-08T01:50:14;21.30;69.80
20288;DHT22;10303;51.960;8.372;2023-07-08T01:52:40;21.20;69.60
20288;DHT22;10303;51.960;8.372;2023-07-08T01:55:06;21.20;69.70
20288;DHT22;10303;51.960;8.372;2023-07-08T01:57:33;21.20;70.00
20288;DHT22;10303;51.960;8.372;2023-07-08T01:59:59;21.10;70.10
20288;DHT22;10303;51.960;8.372;2023-07-08T02:02:25;21.10;70.10
20288;DHT22;10303;51.960;8.372;2023-07-08T02:04:51;21.10;70.20
20288;DHT22;10303;51.960;8.372;2023-07-08T02:07:17;21.10;70.40
20288;DHT22;10303;51.960;8.372;2023-07-08T02:09:43;21.10;70.50
20288;DHT22;10303;51.960;8.372;2023-07-08T02:12:09;21.10;70.70
20288;DHT22;10303;51.960;8.372;2023-07-08T02:14:35;21.10;70.70
20288;DHT22;10303;51.960;8.372;2023-07-08T02:17:01;21.00;70.80
20288;DHT22;10303;51.960;8.372;2023-07-08T02:19:31;21.00;70.80
20288;DHT22;10303;51.960;8.372;2023-07-08T02:21:57;21.00;70.90
20288;DHT22;10303;51.960;8.372;2023-07-08T02:24:23;21.00;71.00
20288;DHT22;10303;51.960;8.372;2023-07-08T02:26:49;21.00;71.20
20288;DHT22;10303;51.960;8.372;2023-07-08T02:29:15;21.00;71.30
20288;DHT22;10303;51.960;8.372;2023-07-08T02:31:41;20.90;71.30
20288;DHT22;10303;51.960;8.372;2023-07-08T02:34:07;20.90;71.20
20288;DHT22;10303;51.960;8.372;2023-07-08T02:36:34;20.90;71.40
20288;DHT22;10303;51.960;8.372;2023-07-08T02:39:00;20.90;71.50
20288;DHT22;10303;51.960;8.372;2023-07-08T02:41:26;20.90;71.30
20288;DHT22;10303;51.960;8.372;2023-07-08T02:43:53;20.80;71.20
20288;DHT22;10303;51.960;8.372;2023-07-08T02:46:19;20.90;71.40
20288;DHT22;10303;51.960;8.372;2023-07-08T02:48:45;20.80;71.40
20288;DHT22;10303;51.960;8.372;2023-07-08T02:51:11;20.80;71.50
20288;DHT22;10303;51.960;8.372;2023-07-08T02:53:37;20.80;71.60
20288;DHT22;10303;51.960;8.372;2023-07-08T02:56:03;20.80;71.70
20288;DHT22;10303;51.960;8.372;2023-07-08T02:58:29;20.80;71.80
20288;DHT22;10303;51.960;8.372;2023-07-08T03:00:56;20.80;71.90
20288;DHT22;10303;51.960;8.372;2023-07-08T03:03:27;20.70;71.90
20288;DHT22;10303;51.960;8.372;2023-07-08T03:05:58;20.70;72.00
20288;DHT22;10303;51.960;8.372;2023-07-08T03:08:28;20.70;72.10
20288;DHT22;10303;51.960;8.372;2023-07-08T03:10:58;20.70;72.10
20288;DHT22;10303;51.960;8.372;2023-07-08T03:13:27;20.60;72.50
20288;DHT22;10303;51.960;8.372;2023-07-08T03:15:55;20.60;72.30
20288;DHT22;10303;51.960;8.372;2023-07-08T03:18:22;20.60;72.40
20288;DHT22;10303;51.960;8.372;2023-07-08T03:20:53;20.50;72.50
20288;DHT22;10303;51.960;8.372;2023-07-08T03:23:23;20.50;73.30
20288;DHT22;10303;51.960;8.372;2023-07-08T03:25:51;20.50;72.50
20288;DHT22;10303;51.960;8.372;2023-07-08T03:28:19;20.50;72.70
20288;DHT22;10303;51.960;8.372;2023-07-08T03:30:52;20.50;72.70
20288;DHT22;10303;51.960;8.372;2023-07-08T03:33:19;20.40;73.20
20288;DHT22;10303;51.960;8.372;2023-07-08T03:35:45;20.50;72.80
20288;DHT22;10303;51.960;8.372;2023-07-08T03:38:11;20.50;73.00
20288;DHT22;10303;51.960;8.372;2023-07-08T03:40:37;20.40;73.00
20288;DHT22;10303;51.960;8.372;2023-07-08T03:43:03;20.40;73.20
20288;DHT22;10303;51.960;8.372;2023-07-08T03:45:30;20.40;73.40
20288;DHT22;10303;51.960;8.372;2023-07-08T03:47:57;20.40;73.50
20288;DHT22;10303;51.960;8.372;2023-07-08T03:50:25;20.40;73.70
20288;DHT22;10303;51.960;8.372;2023-07-08T03:52:53;20.30;74.10
20288;DHT22;10303;51.960;8.372;2023-07-08T03:55:22;20.30;74.10
20288;DHT22;10303;51.960;8.372;2023-07-08T03:57:49;20.30;74.00
20288;DHT22;10303;51.960;8.372;2023-07-08T04:00:16;20.30;74.10
20288;DHT22;10303;51.960;8.372;2023-07-08T04:02:43;20.30;74.10
20288;DHT22;10303;51.960;8.372;2023-07-08T04:05:19;20.30;74.30
20288;DHT22;10303;51.960;8.372;2023-07-08T04:07:48;20.30;74.40
20288;DHT22;10303;51.960;8.372;2023-07-08T04:10:15;20.20;74.40
20288;DHT22;10303;51.960;8.372;2023-07-08T04:12:42;20.30;74.70
20288;DHT22;10303;51.960;8.372;2023-07-08T04:15:09;20.20;74.50
20288;DHT22;10303;51.960;8.372;2023-07-08T04:17:45;20.20;74.60
20288;DHT22;10303;51.960;8.372;2023-07-08T04:20:15;20.20;75.20
20288;DHT22;10303;51.960;8.372;2023-07-08T04:22:44;20.30;75.00
20288;DHT22;10303;51.960;8.372;2023-07-08T04:25:11;20.20;75.00
20288;DHT22;10303;51.960;8.372;2023-07-08T04:27:39;20.20;75.30
20288;DHT22;10303;51.960;8.372;2023-07-08T04:30:07;20.30;75.50
20288;DHT22;10303;51.960;8.372;2023-07-08T04:32:40;20.30;75.60
20288;DHT22;10303;51.960;8.372;2023-07-08T04:35:07;20.30;75.70
20288;DHT22;10303;51.960;8.372;2023-07-08T04:37:33;20.30;75.90
20288;DHT22;10303;51.960;8.372;2023-07-08T04:39:59;20.30;76.00
20288;DHT22;10303;51.960;8.372;2023-07-08T04:42:25;20.30;76.20
20288;DHT22;10303;51.960;8.372;2023-07-08T04:44:53;20.30;76.20
20288;DHT22;10303;51.960;8.372;2023-07-08T04:47:19;20.40;76.50
20288;DHT22;10303;51.960;8.372;2023-07-08T04:49:45;20.40;76.70
20288;DHT22;10303;51.960;8.372;2023-07-08T04:52:12;20.40;76.70
20288;DHT22;10303;51.960;8.372;2023-07-08T04:54:38;20.40;76.90
20288;DHT22;10303;51.960;8.372;2023-07-08T04:57:04;20.50;77.20
20288;DHT22;10303;51.960;8.372;2023-07-08T04:59:30;20.50;77.50
20288;DHT22;10303;51.960;8.372;2023-07-08T05:02:00;20.50;77.90
20288;DHT22;10303;51.960;8.372;2023-07-08T05:04:26;20.50;78.10
20288;DHT22;10303;51.960;8.372;2023-07-08T05:06:52;20.60;78.20
20288;DHT22;10303;51.960;8.372;2023-07-08T05:09:18;20.70;78.30
20288;DHT22;10303;51.960;8.372;2023-07-08T05:11:44;20.70;78.40
20288;DHT22;10303;51.960;8.372;2023-07-08T05:14:12;20.70;78.60
20288;DHT22;10303;51.960;8.372;2023-07-08T05:16:38;20.80;79.10
20288;DHT22;10303;51.960;8.372;2023-07-08T05:19:06;20.80;79.00
20288;DHT22;10303;51.960;8.372;2023-07-08T05:21:32;20.90;79.30
20288;DHT22;10303;51.960;8.372;2023-07-08T05:24:04;20.90;79.40
20288;DHT22;10303;51.960;8.372;2023-07-08T05:26:31;21.00;79.90
20288;DHT22;10303;51.960;8.372;2023-07-08T05:28:58;21.00;79.70
20288;DHT22;10303;51.960;8.372;2023-07-08T05:31:24;21.10;79.90
20288;DHT22;10303;51.960;8.372;2023-07-08T05:33:51;21.10;80.10
20288;DHT22;10303;51.960;8.372;2023-07-08T05:36:16;21.20;80.60
20288;DHT22;10303;51.960;8.372;2023-07-08T05:38:42;21.20;80.70
20288;DHT22;10303;51.960;8.372;2023-07-08T05:41:08;21.30;81.10
20288;DHT22;10303;51.960;8.372;2023-07-08T05:43:34;21.30;81.40
20288;DHT22;10303;51.960;8.372;2023-07-08T05:46:01;21.50;82.00
20288;DHT22;10303;51.960;8.372;2023-07-08T05:48:28;21.50;82.70
20288;DHT22;10303;51.960;8.372;2023-07-08T05:50:55;21.60;83.00
20288;DHT22;10303;51.960;8.372;2023-07-08T05:53:21;21.60;83.50
20288;DHT22;10303;51.960;8.372;2023-07-08T05:55:48;21.80;83.50
20288;DHT22;10303;51.960;8.372;2023-07-08T05:58:15;21.80;83.60
20288;DHT22;10303;51.960;8.372;2023-07-08T06:00:42;21.90;83.90
20288;DHT22;10303;51.960;8.372;2023-07-08T06:03:09;21.90;84.60
20288;DHT22;10303;51.960;8.372;2023-07-08T06:05:37;22.00;84.50
20288;DHT22;10303;51.960;8.372;2023-07-08T06:08:05;22.10;84.60
20288;DHT22;10303;51.960;8.372;2023-07-08T06:10:33;22.20;84.80
20288;DHT22;10303;51.960;8.372;2023-07-08T06:12:59;22.30;85.00
20288;DHT22;10303;51.960;8.372;2023-07-08T06:15:25;22.30;85.10
20288;DHT22;10303;51.960;8.372;2023-07-08T06:17:51;22.50;85.40
20288;DHT22;10303;51.960;8.372;2023-07-08T06:20:17;22.50;85.20
20288;DHT22;10303;51.960;8.372;2023-07-08T06:22:43;22.60;85.20
20288;DHT22;10303;51.960;8.372;2023-07-08T06:25:09;22.70;85.10
20288;DHT22;10303;51.960;8.372;2023-07-08T06:27:36;22.80;85.00
20288;DHT22;10303;51.960;8.372;2023-07-08T06:30:02;22.90;85.00
20288;DHT22;10303;51.960;8.372;2023-07-08T06:32:28;23.00;84.80
20288;DHT22;10303;51.960;8.372;2023-07-08T06:34:54;23.10;84.80
20288;DHT22;10303;51.960;8.372;2023-07-08T06:37:21;23.20;85.10
20288;DHT22;10303;51.960;8.372;2023-07-08T06:39:46;23.30;85.00
20288;DHT22;10303;51.960;8.372;2023-07-08T06:42:12;23.40;84.80
20288;DHT22;10303;51.960;8.372;2023-07-08T06:44:45;23.50;84.50
20288;DHT22;10303;51.960;8.372;2023-07-08T06:47:20;23.60;84.20
20288;DHT22;10303;51.960;8.372;2023-07-08T06:49:48;23.70;83.90
20288;DHT22;10303;51.960;8.372;2023-07-08T06:52:14;23.80;83.70
20288;DHT22;10303;51.960;8.372;2023-07-08T06:54:40;23.90;83.50
20288;DHT22;10303;51.960;8.372;2023-07-08T06:57:07;24.00;83.80
20288;DHT22;10303;51.960;8.372;2023-07-08T06:59:33;24.10;83.70
20288;DHT22;10303;51.960;8.372;2023-07-08T07:02:00;24.30;83.60
20288;DHT22;10303;51.960;8.372;2023-07-08T07:04:26;24.40;83.70
20288;DHT22;10303;51.960;8.372;2023-07-08T07:06:52;24.40;83.60
20288;DHT22;10303;51.960;8.372;2023-07-08T07:09:18;24.60;83.20
20288;DHT22;10303;51.960;8.372;2023-07-08T07:11:44;24.70;82.80
20288;DHT22;10303;51.960;8.372;2023-07-08T07:14:11;24.80;82.40
20288;DHT22;10303;51.960;8.372;2023-07-08T07:16:37;24.90;82.30
20288;DHT22;10303;51.960;8.372;2023-07-08T07:19:03;25.00;82.00
20288;DHT22;10303;51.960;8.372;2023-07-08T07:21:29;25.10;81.90
20288;DHT22;10303;51.960;8.372;2023-07-08T07:23:55;25.30;81.60
20288;DHT22;10303;51.960;8.372;2023-07-08T07:26:22;25.40;81.40
20288;DHT22;10303;51.960;8.372;2023-07-08T07:28:48;25.50;81.30
20288;DHT22;10303;51.960;8.372;2023-07-08T07:31:14;25.60;80.80
20288;DHT22;10303;51.960;8.372;2023-07-08T07:33:39;25.70;80.80
20288;DHT22;10303;51.960;8.372;2023-07-08T07:36:05;25.90;80.80
20288;DHT22;10303;51.960;8.372;2023-07-08T07:38:33;26.00;80.10
20288;DHT22;10303;51.960;8.372;2023-07-08T07:40:59;26.10;80.00
20288;DHT22;10303;51.960;8.372;2023-07-08T07:43:30;26.20;80.10
20288;DHT22;10303;51.960;8.372;2023-07-08T07:45:56;26.40;80.00
20288;DHT22;10303;51.960;8.372;2023-07-08T07:48:22;26.50;80.30
20288;DHT22;10303;51.960;8.372;2023-07-08T07:50:50;26.70;80.30
20288;DHT22;10303;51.960;8.372;2023-07-08T07:53:17;26.80;79.90
20288;DHT22;10303;51.960;8.372;2023-07-08T07:55:44;27.00;79.60
20288;DHT22;10303;51.960;8.372;2023-07-08T07:58:10;27.20;79.20
20288;DHT22;10303;51.960;8.372;2023-07-08T08:00:38;27.40;79.00
20288;DHT22;10303;51.960;8.372;2023-07-08T08:03:04;27.60;79.20
20288;DHT22;10303;51.960;8.372;2023-07-08T08:05:30;27.70;79.40
20288;DHT22;10303;51.960;8.372;2023-07-08T08:07:56;27.90;78.70
20288;DHT22;10303;51.960;8.372;2023-07-08T08:10:22;28.10;78.60
20288;DHT22;10303;51.960;8.372;2023-07-08T08:12:48;28.30;77.70
20288;DHT22;10303;51.960;8.372;2023-07-08T08:15:17;28.50;77.40
20288;DHT22;10303;51.960;8.372;2023-07-08T08:17:43;28.70;76.90
20288;DHT22;10303;51.960;8.372;2023-07-08T08:20:13;28.90;76.60
20288;DHT22;10303;51.960;8.372;2023-07-08T08:22:39;29.10;76.20
20288;DHT22;10303;51.960;8.372;2023-07-08T08:25:05;29.30;74.40
20288;DHT22;10303;51.960;8.372;2023-07-08T08:27:32;29.60;73.00
20288;DHT22;10303;51.960;8.372;2023-07-08T08:29:58;29.80;73.30
20288;DHT22;10303;51.960;8.372;2023-07-08T08:32:25;30.00;72.70
20288;DHT22;10303;51.960;8.372;2023-07-08T08:34:51;30.20;71.70
20288;DHT22;10303;51.960;8.372;2023-07-08T08:37:17;30.40;71.70
20288;DHT22;10303;51.960;8.372;2023-07-08T08:39:43;30.60;70.70
20288;DHT22;10303;51.960;8.372;2023-07-08T08:42:27;30.90;69.10
20288;DHT22;10303;51.960;8.372;2023-07-08T08:45:13;31.10;67.80
20288;DHT22;10303;51.960;8.372;2023-07-08T08:47:46;31.30;66.70
20288;DHT22;10303;51.960;8.372;2023-07-08T08:50:21;31.50;65.60
20288;DHT22;10303;51.960;8.372;2023-07-08T08:52:53;31.70;64.60
20288;DHT22;10303;51.960;8.372;2023-07-08T08:55:22;31.90;66.80
20288;DHT22;10303;51.960;8.372;2023-07-08T09:01:12;32.30;65.30
20288;DHT22;10303;51.960;8.372;2023-07-08T09:04:10;32.50;66.40
20288;DHT22;10303;51.960;8.372;2023-07-08T09:06:42;32.70;64.00
20288;DHT22;10303;51.960;8.372;2023-07-08T09:09:42;33.00;65.20
20288;DHT22;10303;51.960;8.372;2023-07-08T09:12:24;33.20;62.90
20288;DHT22;10303;51.960;8.372;2023-07-08T09:14:53;33.40;63.00
20288;DHT22;10303;51.960;8.372;2023-07-08T09:17:30;33.60;64.20
20288;DHT22;10303;51.960;8.372;2023-07-08T09:20:06;33.70;62.00
20288;DHT22;10303;51.960;8.372;2023-07-08T09:28:19;34.30;59.00
20288;DHT22;10303;51.960;8.372;2023-07-08T09:30:48;34.50;59.30
20288;DHT22;10303;51.960;8.372;2023-07-08T09:33:18;34.60;59.70
20288;DHT22;10303;51.960;8.372;2023-07-08T09:35:48;34.80;60.20
20288;DHT22;10303;51.960;8.372;2023-07-08T09:38:17;35.00;59.60
20288;DHT22;10303;51.960;8.372;2023-07-08T09:40:52;35.20;60.40
20288;DHT22;10303;51.960;8.372;2023-07-08T09:43:30;35.40;60.30
20288;DHT22;10303;51.960;8.372;2023-07-08T09:46:04;35.60;59.10
20288;DHT22;10303;51.960;8.372;2023-07-08T09:48:37;35.80;58.80
20288;DHT22;10303;51.960;8.372;2023-07-08T09:51:04;36.00;57.50
20288;DHT22;10303;51.960;8.372;2023-07-08T09:53:30;36.10;57.40
20288;DHT22;10303;51.960;8.372;2023-07-08T09:56:00;36.30;57.50
20288;DHT22;10303;51.960;8.372;2023-07-08T09:58:39;36.40;56.70
20288;DHT22;10303;51.960;8.372;2023-07-08T10:01:13;36.60;53.30
20288;DHT22;10303;51.960;8.372;2023-07-08T10:03:46;36.80;55.70
20288;DHT22;10303;51.960;8.372;2023-07-08T10:06:32;37.00;55.50
20288;DHT22;10303;51.960;8.372;2023-07-08T10:09:09;37.10;55.40
20288;DHT22;10303;51.960;8.372;2023-07-08T10:12:01;37.20;53.60
20288;DHT22;10303;51.960;8.372;2023-07-08T10:14:45;37.40;55.00
20288;DHT22;10303;51.960;8.372;2023-07-08T10:17:17;37.60;52.60
20288;DHT22;10303;51.960;8.372;2023-07-08T10:19:46;37.80;53.80
20288;DHT22;10303;51.960;8.372;2023-07-08T10:24:58;38.10;54.50
20288;DHT22;10303;51.960;8.372;2023-07-08T10:36:05;39.10;53.90
20288;DHT22;10303;51.960;8.372;2023-07-08T10:44:35;39.90;52.60
20288;DHT22;10303;51.960;8.372;2023-07-08T11:04:48;41.30;47.80
20288;DHT22;10303;51.960;8.372;2023-07-08T11:10:20;41.50;45.50
20288;DHT22;10303;51.960;8.372;2023-07-08T11:13:02;41.60;46.60
20288;DHT22;10303;51.960;8.372;2023-07-08T11:15:52;41.60;46.30
20288;DHT22;10303;51.960;8.372;2023-07-08T11:21:40;41.80;46.10
20288;DHT22;10303;51.960;8.372;2023-07-08T11:30:23;41.80;44.40
20288;DHT22;10303;51.960;8.372;2023-07-08T11:33:00;41.90;45.00
20288;DHT22;10303;51.960;8.372;2023-07-08T11:38:28;42.00;44.00
20288;DHT22;10303;51.960;8.372;2023-07-08T11:43:49;42.00;44.80
20288;DHT22;10303;51.960;8.372;2023-07-08T11:46:23;42.00;44.50
20288;DHT22;10303;51.960;8.372;2023-07-08T11:48:56;42.10;44.00
20288;DHT22;10303;51.960;8.372;2023-07-08T11:51:29;42.20;44.10
20288;DHT22;10303;51.960;8.372;2023-07-08T11:59:20;42.30;42.50
20288;DHT22;10303;51.960;8.372;2023-07-08T12:02:00;42.30;41.40
20288;DHT22;10303;51.960;8.372;2023-07-08T12:04:55;42.30;42.90
20288;DHT22;10303;51.960;8.372;2023-07-08T12:07:42;42.40;43.10
20288;DHT22;10303;51.960;8.372;2023-07-08T12:10:26;42.50;43.00
20288;DHT22;10303;51.960;8.372;2023-07-08T12:12:58;42.50;43.30
20288;DHT22;10303;51.960;8.372;2023-07-08T12:17:59;42.60;42.60
20288;DHT22;10303;51.960;8.372;2023-07-08T12:20:35;42.70;42.60
20288;DHT22;10303;51.960;8.372;2023-07-08T12:23:21;42.70;42.70
20288;DHT22;10303;51.960;8.372;2023-07-08T12:25:50;42.80;41.90
20288;DHT22;10303;51.960;8.372;2023-07-08T12:28:17;42.90;41.70
20288;DHT22;10303;51.960;8.372;2023-07-08T12:30:45;42.90;40.90
20288;DHT22;10303;51.960;8.372;2023-07-08T12:33:27;42.90;40.00
20288;DHT22;10303;51.960;8.372;2023-07-08T12:35:56;42.90;40.30
20288;DHT22;10303;51.960;8.372;2023-07-08T12:38:30;42.90;40.30
20288;DHT22;10303;51.960;8.372;2023-07-08T12:41:01;42.90;40.10
20288;DHT22;10303;51.960;8.372;2023-07-08T12:43:34;42.90;40.60
20288;DHT22;10303;51.960;8.372;2023-07-08T12:46:00;42.90;40.20
20288;DHT22;10303;51.960;8.372;2023-07-08T12:48:31;42.90;39.90
20288;DHT22;10303;51.960;8.372;2023-07-08T12:51:02;43.00;40.40
20288;DHT22;10303;51.960;8.372;2023-07-08T12:53:29;42.90;39.90
20288;DHT22;10303;51.960;8.372;2023-07-08T12:55:58;43.00;40.20
20288;DHT22;10303;51.960;8.372;2023-07-08T12:58:27;42.90;39.80
20288;DHT22;10303;51.960;8.372;2023-07-08T13:00:57;43.00;39.80
20288;DHT22;10303;51.960;8.372;2023-07-08T13:03:27;43.10;40.40
20288;DHT22;10303;51.960;8.372;2023-07-08T13:05:58;43.10;40.10
20288;DHT22;10303;51.960;8.372;2023-07-08T13:08:30;43.20;39.70
20288;DHT22;10303;51.960;8.372;2023-07-08T13:11:02;43.20;39.10
20288;DHT22;10303;51.960;8.372;2023-07-08T13:13:37;43.20;39.20
20288;DHT22;10303;51.960;8.372;2023-07-08T13:16:07;43.20;38.90
20288;DHT22;10303;51.960;8.372;2023-07-08T13:18:40;43.20;39.30
20288;DHT22;10303;51.960;8.372;2023-07-08T13:21:13;43.30;38.40
20288;DHT22;10303;51.960;8.372;2023-07-08T13:23:41;43.30;38.30
20288;DHT22;10303;51.960;8.372;2023-07-08T13:26:16;43.30;38.40
20288;DHT22;10303;51.960;8.372;2023-07-08T13:28:45;43.30;38.10
20288;DHT22;10303;51.960;8.372;2023-07-08T13:31:23;43.30;38.10
20288;DHT22;10303;51.960;8.372;2023-07-08T13:33:54;43.30;37.60
20288;DHT22;10303;51.960;8.372;2023-07-08T13:36:31;43.30;36.80
20288;DHT22;10303;51.960;8.372;2023-07-08T13:39:01;43.30;37.30
20288;DHT22;10303;51.960;8.372;2023-07-08T13:41:32;43.30;37.70
20288;DHT22;10303;51.960;8.372;2023-07-08T13:44:07;43.30;37.60
20288;DHT22;10303;51.960;8.372;2023-07-08T13:47:00;43.30;37.70
20288;DHT22;10303;51.960;8.372;2023-07-08T13:49:38;43.30;37.70
20288;DHT22;10303;51.960;8.372;2023-07-08T13:54:42;43.40;37.00
20288;DHT22;10303;51.960;8.372;2023-07-08T13:57:16;43.40;36.10
20288;DHT22;10303;51.960;8.372;2023-07-08T13:59:43;43.30;36.50
20288;DHT22;10303;51.960;8.372;2023-07-08T14:02:22;43.30;36.70
20288;DHT22;10303;51.960;8.372;2023-07-08T14:04:53;43.20;37.10
20288;DHT22;10303;51.960;8.372;2023-07-08T14:07:26;43.20;37.00
20288;DHT22;10303;51.960;8.372;2023-07-08T14:09:54;43.10;36.30
20288;DHT22;10303;51.960;8.372;2023-07-08T14:12:21;43.00;36.40
20288;DHT22;10303;51.960;8.372;2023-07-08T14:14:47;43.00;36.70
20288;DHT22;10303;51.960;8.372;2023-07-08T14:17:21;42.80;36.60
20288;DHT22;10303;51.960;8.372;2023-07-08T14:19:50;42.80;36.20
20288;DHT22;10303;51.960;8.372;2023-07-08T14:22:25;42.70;36.10
20288;DHT22;10303;51.960;8.372;2023-07-08T14:24:53;42.50;35.70
20288;DHT22;10303;51.960;8.372;2023-07-08T14:27:21;42.40;35.80
20288;DHT22;10303;51.960;8.372;2023-07-08T14:29:48;42.20;35.80
20288;DHT22;10303;51.960;8.372;2023-07-08T14:32:25;42.10;36.00
20288;DHT22;10303;51.960;8.372;2023-07-08T14:34:57;42.00;36.20
20288;DHT22;10303;51.960;8.372;2023-07-08T14:37:29;41.80;36.10
20288;DHT22;10303;51.960;8.372;2023-07-08T14:39:55;41.70;36.30
20288;DHT22;10303;51.960;8.372;2023-07-08T14:42:21;41.50;36.00
20288;DHT22;10303;51.960;8.372;2023-07-08T14:44:50;41.30;35.80
20288;DHT22;10303;51.960;8.372;2023-07-08T14:47:19;41.10;36.00
20288;DHT22;10303;51.960;8.372;2023-07-08T14:49:45;40.90;36.10
20288;DHT22;10303;51.960;8.372;2023-07-08T14:52:12;40.80;36.80
20288;DHT22;10303;51.960;8.372;2023-07-08T14:54:38;40.60;37.00
20288;DHT22;10303;51.960;8.372;2023-07-08T14:57:04;40.50;36.70
20288;DHT22;10303;51.960;8.372;2023-07-08T14:59:33;40.30;36.40
20288;DHT22;10303;51.960;8.372;2023-07-08T15:02:17;40.10;36.60
20288;DHT22;10303;51.960;8.372;2023-07-08T15:04:46;40.00;36.70
20288;DHT22;10303;51.960;8.372;2023-07-08T15:07:12;39.80;37.30
20288;DHT22;10303;51.960;8.372;2023-07-08T15:09:38;39.70;37.20
20288;DHT22;10303;51.960;8.372;2023-07-08T15:12:07;39.50;37.10
20288;DHT22;10303;51.960;8.372;2023-07-08T15:14:35;39.30;37.00
20288;DHT22;10303;51.960;8.372;2023-07-08T15:17:01;39.20;37.20
20288;DHT22;10303;51.960;8.372;2023-07-08T15:19:27;39.10;37.50
20288;DHT22;10303;51.960;8.372;2023-07-08T15:21:53;39.00;37.50
20288;DHT22;10303;51.960;8.372;2023-07-08T15:24:19;38.90;37.70
20288;DHT22;10303;51.960;8.372;2023-07-08T15:26:48;38.80;37.90
20288;DHT22;10303;51.960;8.372;2023-07-08T15:29:22;38.70;38.00
20288;DHT22;10303;51.960;8.372;2023-07-08T15:31:49;38.60;37.70
20288;DHT22;10303;51.960;8.372;2023-07-08T15:34:18;38.50;37.70
20288;DHT22;10303;51.960;8.372;2023-07-08T15:36:45;38.40;37.60
20288;DHT22;10303;51.960;8.372;2023-07-08T15:39:13;38.40;37.80
20288;DHT22;10303;51.960;8.372;2023-07-08T15:41:39;38.20;37.80
20288;DHT22;10303;51.960;8.372;2023-07-08T15:44:08;38.10;37.80
20288;DHT22;10303;51.960;8.372;2023-07-08T15:46:46;38.00;38.10
20288;DHT22;10303;51.960;8.372;2023-07-08T15:49:15;38.00;37.90
20288;DHT22;10303;51.960;8.372;2023-07-08T15:51:42;37.90;38.00
20288;DHT22;10303;51.960;8.372;2023-07-08T15:54:09;37.80;38.10
20288;DHT22;10303;51.960;8.372;2023-07-08T15:56:36;37.70;38.00
20288;DHT22;10303;51.960;8.372;2023-07-08T15:59:03;37.60;38.00
20288;DHT22;10303;51.960;8.372;2023-07-08T16:01:31;37.50;38.20
20288;DHT22;10303;51.960;8.372;2023-07-08T16:03:57;37.50;38.60
20288;DHT22;10303;51.960;8.372;2023-07-08T16:06:25;37.40;38.50
20288;DHT22;10303;51.960;8.372;2023-07-08T16:08:51;37.30;38.40
20288;DHT22;10303;51.960;8.372;2023-07-08T16:11:28;37.30;38.30
20288;DHT22;10303;51.960;8.372;2023-07-08T16:13:57;37.20;38.30
20288;DHT22;10303;51.960;8.372;2023-07-08T16:16:24;37.10;38.80
20288;DHT22;10303;51.960;8.372;2023-07-08T16:18:51;37.10;39.10
20288;DHT22;10303;51.960;8.372;2023-07-08T16:21:17;37.00;39.40
20288;DHT22;10303;51.960;8.372;2023-07-08T16:23:43;37.00;39.50
20288;DHT22;10303;51.960;8.372;2023-07-08T16:26:12;36.90;39.50
20288;DHT22;10303;51.960;8.372;2023-07-08T16:28:44;36.80;39.40
20288;DHT22;10303;51.960;8.372;2023-07-08T16:31:20;36.80;39.80
20288;DHT22;10303;51.960;8.372;2023-07-08T16:33:48;36.70;39.70
20288;DHT22;10303;51.960;8.372;2023-07-08T16:36:19;36.70;39.70
20288;DHT22;10303;51.960;8.372;2023-07-08T16:38:53;36.60;40.00
20288;DHT22;10303;51.960;8.372;2023-07-08T16:41:21;36.60;40.60
20288;DHT22;10303;51.960;8.372;2023-07-08T16:43:50;36.60;40.40
20288;DHT22;10303;51.960;8.372;2023-07-08T16:46:19;36.60;40.40
20288;DHT22;10303;51.960;8.372;2023-07-08T16:48:45;36.50;40.40
20288;DHT22;10303;51.960;8.372;2023-07-08T16:51:22;36.50;40.70
20288;DHT22;10303;51.960;8.372;2023-07-08T16:53:55;36.50;40.70
20288;DHT22;10303;51.960;8.372;2023-07-08T16:56:27;36.50;40.60
20288;DHT22;10303;51.960;8.372;2023-07-08T16:58:53;36.50;40.80
20288;DHT22;10303;51.960;8.372;2023-07-08T17:01:22;36.50;40.90
20288;DHT22;10303;51.960;8.372;2023-07-08T17:03:50;36.40;40.90
20288;DHT22;10303;51.960;8.372;2023-07-08T17:06:19;36.40;40.70
20288;DHT22;10303;51.960;8.372;2023-07-08T17:08:45;36.40;41.00
20288;DHT22;10303;51.960;8.372;2023-07-08T17:11:11;36.40;41.20